sensor_id;sensor_type;location;lat;lon;timestamp;temperature;humidity
12811;DHT22;6470;47.654;7.896;2023-12-29T00:04:29;5.90;99.90
12811;DHT22;6470;47.654;7.896;2023-12-29T00:06:55;5.90;99.90
12811;DHT22;6470;47.654;7.896;2023-12-29T00:09:21;6.00;99.90
12811;DHT22;6470;47.654;7.896;2023-12-29T00:11:50;5.70;99.90
12811;DHT22;6470;47.654;7.896;2023-12-29T00:14:17;4.70;99.90
12811;DHT22;6470;47.654;7.896;2023-12-29T00:16:42;5.30;99.90
12811;DHT22;6470;47.654;7.896;2023-12-29T00:19:10;4.90;99.90
12811;DHT22;6470;47.654;7.896;2023-12-29T00:21:36;5.50;99.90
12811;DHT22;6470;47.654;7.896;2023-12-29T00:24:02;5.10;99.90
12811;DHT22;6470;47.654;7.896;2023-12-29T00:26:28;5.10;99.90
12811;DHT22;6470;47.654;7.896;2023-12-29T00:28:54;6.00;99.90
12811;DHT22;6470;47.654;7.896;2023-12-29T00:33:46;6.30;99.90
12811;DHT22;6470;47.654;7.896;2023-12-29T00:36:19;5.60;99.90
12811;DHT22;6470;47.654;7.896;2023-12-29T00:38:45;5.50;99.90
12811;DHT22;6470;47.654;7.896;2023-12-29T00:41:11;5.70;99.90
12811;DHT22;6470;47.654;7.896;2023-12-29T00:43:37;6.50;99.90
12811;DHT22;6470;47.654;7.896;2023-12-29T00:46:07;6.30;99.90
12811;DHT22;6470;47.654;7.896;2023-12-29T00:48:34;5.50;99.90
12811;DHT22;6470;47.654;7.896;2023-12-29T00:51:03;6.20;99.90
12811;DHT22;6470;47.654;7.896;2023-12-29T00:53:29;6.40;99.90
12811;DHT22;6470;47.654;7.896;2023-12-29T00:55:57;6.90;99.90
12811;DHT22;6470;47.654;7.896;2023-12-29T00:58:23;6.40;99.90
12811;DHT22;6470;47.654;7.896;2023-12-29T01:00:49;3.30;99.90
12811;DHT22;6470;47.654;7.896;2023-12-29T01:03:15;6.40;99.90
12811;DHT22;6470;47.654;7.896;2023-12-29T01:05:40;6.20;99.90
12811;DHT22;6470;47.654;7.896;2023-12-29T01:08:06;6.00;99.90
12811;DHT22;6470;47.654;7.896;2023-12-29T01:10:32;7.10;99.90
12811;DHT22;6470;47.654;7.896;2023-12-29T01:15:24;6.80;99.90
12811;DHT22;6470;47.654;7.896;2023-12-29T01:17:49;7.10;99.90
12811;DHT22;6470;47.654;7.896;2023-12-29T01:22:41;6.90;99.90
12811;DHT22;6470;47.654;7.896;2023-12-29T01:25:07;6.80;99.90
12811;DHT22;6470;47.654;7.896;2023-12-29T01:27:33;6.60;99.90
12811;DHT22;6470;47.654;7.896;2023-12-29T01:29:58;6.70;99.90
12811;DHT22;6470;47.654;7.896;2023-12-29T01:32:25;6.60;99.90
12811;DHT22;6470;47.654;7.896;2023-12-29T01:34:54;6.40;99.90
12811;DHT22;6470;47.654;7.896;2023-12-29T01:37:20;7.00;99.90
12811;DHT22;6470;47.654;7.896;2023-12-29T01:42:12;7.00;99.90
12811;DHT22;6470;47.654;7.896;2023-12-29T01:44:37;7.50;99.90
12811;DHT22;6470;47.654;7.896;2023-12-29T01:47:05;8.40;99.90
12811;DHT22;6470;47.654;7.896;2023-12-29T01:49:36;8.10;99.90
12811;DHT22;6470;47.654;7.896;2023-12-29T01:52:02;8.70;99.90
12811;DHT22;6470;47.654;7.896;2023-12-29T01:54:33;8.80;99.90
12811;DHT22;6470;47.654;7.896;2023-12-29T01:57:00;8.10;99.90
12811;DHT22;6470;47.654;7.896;2023-12-29T01:59:29;8.80;99.90
12811;DHT22;6470;47.654;7.896;2023-12-29T02:01:56;8.50;99.90
12811;DHT22;6470;47.654;7.896;2023-12-29T02:04:24;8.60;99.90
12811;DHT22;6470;47.654;7.896;2023-12-29T02:06:51;7.90;99.90
12811;DHT22;6470;47.654;7.896;2023-12-29T02:09:17;8.40;99.90
12811;DHT22;6470;47.654;7.896;2023-12-29T02:22:05;7.80;99.90
12811;DHT22;6470;47.654;7.896;2023-12-29T02:24:33;7.90;99.90
12811;DHT22;6470;47.654;7.896;2023-12-29T02:32:45;7.60;99.90
12811;DHT22;6470;47.654;7.896;2023-12-29T02:35:22;8.20;99.90
12811;DHT22;6470;47.654;7.896;2023-12-29T02:37:49;7.70;99.90
12811;DHT22;6470;47.654;7.896;2023-12-29T02:40:15;7.90;99.90
12811;DHT22;6470;47.654;7.896;2023-12-29T02:42:48;6.70;99.90
12811;DHT22;6470;47.654;7.896;2023-12-29T02:45:15;7.00;99.90
12811;DHT22;6470;47.654;7.896;2023-12-29T02:47:42;6.80;99.90
12811;DHT22;6470;47.654;7.896;2023-12-29T02:50:09;7.00;99.90
12811;DHT22;6470;47.654;7.896;2023-12-29T02:55:01;7.20;99.90
12811;DHT22;6470;47.654;7.896;2023-12-29T02:57:27;7.40;99.90
12811;DHT22;6470;47.654;7.896;2023-12-29T02:59:53;6.90;99.90
12811;DHT22;6470;47.654;7.896;2023-12-29T03:02:19;6.80;99.90
12811;DHT22;6470;47.654;7.896;2023-12-29T03:04:45;7.60;99.90
12811;DHT22;6470;47.654;7.896;2023-12-29T03:07:11;7.10;99.90
12811;DHT22;6470;47.654;7.896;2023-12-29T03:09:36;7.00;99.90
12811;DHT22;6470;47.654;7.896;2023-12-29T03:12:03;6.90;99.90
12811;DHT22;6470;47.654;7.896;2023-12-29T03:14:28;6.90;99.90
12811;DHT22;6470;47.654;7.896;2023-12-29T03:16:54;6.60;99.90
12811;DHT22;6470;47.654;7.896;2023-12-29T03:19:20;6.50;99.90
12811;DHT22;6470;47.654;7.896;2023-12-29T03:21:46;6.80;99.90
12811;DHT22;6470;47.654;7.896;2023-12-29T03:24:12;6.80;99.90
12811;DHT22;6470;47.654;7.896;2023-12-29T03:26:37;6.80;99.90
12811;DHT22;6470;47.654;7.896;2023-12-29T03:29:03;7.10;99.90
12811;DHT22;6470;47.654;7.896;2023-12-29T03:31:29;7.20;99.90
12811;DHT22;6470;47.654;7.896;2023-12-29T03:33:54;6.80;99.90
12811;DHT22;6470;47.654;7.896;2023-12-29T03:36:20;6.30;99.90
12811;DHT22;6470;47.654;7.896;2023-12-29T03:38:46;6.60;99.90
12811;DHT22;6470;47.654;7.896;2023-12-29T03:41:11;6.60;99.90
12811;DHT22;6470;47.654;7.896;2023-12-29T03:43:37;6.60;99.90
12811;DHT22;6470;47.654;7.896;2023-12-29T03:46:03;6.60;99.90
12811;DHT22;6470;47.654;7.896;2023-12-29T03:48:28;6.50;99.90
12811;DHT22;6470;47.654;7.896;2023-12-29T03:50:54;6.40;99.90
12811;DHT22;6470;47.654;7.896;2023-12-29T03:53:20;6.40;99.90
12811;DHT22;6470;47.654;7.896;2023-12-29T03:55:45;6.30;99.90
12811;DHT22;6470;47.654;7.896;2023-12-29T03:58:11;6.70;99.90
12811;DHT22;6470;47.654;7.896;2023-12-29T04:00:37;7.30;99.90
12811;DHT22;6470;47.654;7.896;2023-12-29T04:05:32;6.70;99.90
12811;DHT22;6470;47.654;7.896;2023-12-29T04:07:58;7.00;99.90
12811;DHT22;6470;47.654;7.896;2023-12-29T04:10:24;7.00;99.90
12811;DHT22;6470;47.654;7.896;2023-12-29T04:12:49;7.00;99.90
12811;DHT22;6470;47.654;7.896;2023-12-29T04:15:15;7.20;99.90
12811;DHT22;6470;47.654;7.896;2023-12-29T04:17:41;6.50;99.90
12811;DHT22;6470;47.654;7.896;2023-12-29T04:20:07;4.20;99.90
12811;DHT22;6470;47.654;7.896;2023-12-29T04:22:32;7.10;99.90
12811;DHT22;6470;47.654;7.896;2023-12-29T04:27:25;7.60;99.90
12811;DHT22;6470;47.654;7.896;2023-12-29T04:29:51;6.80;99.90
12811;DHT22;6470;47.654;7.896;2023-12-29T04:32:16;7.00;99.90
12811;DHT22;6470;47.654;7.896;2023-12-29T04:34:42;7.30;99.90
12811;DHT22;6470;47.654;7.896;2023-12-29T04:37:10;7.10;99.90
12811;DHT22;6470;47.654;7.896;2023-12-29T04:39:37;6.80;99.90
12811;DHT22;6470;47.654;7.896;2023-12-29T04:42:03;6.30;99.90
12811;DHT22;6470;47.654;7.896;2023-12-29T04:44:28;6.80;99.90
12811;DHT22;6470;47.654;7.896;2023-12-29T04:46:54;6.30;99.90
12811;DHT22;6470;47.654;7.896;2023-12-29T04:49:20;6.50;99.90
12811;DHT22;6470;47.654;7.896;2023-12-29T04:51:45;7.50;99.90
12811;DHT22;6470;47.654;7.896;2023-12-29T04:56:39;6.90;99.90
12811;DHT22;6470;47.654;7.896;2023-12-29T05:01:31;7.30;99.90
12811;DHT22;6470;47.654;7.896;2023-12-29T05:03:57;7.30;99.90
12811;DHT22;6470;47.654;7.896;2023-12-29T05:06:23;7.20;99.90
12811;DHT22;6470;47.654;7.896;2023-12-29T05:08:48;6.60;99.90
12811;DHT22;6470;47.654;7.896;2023-12-29T05:11:14;7.10;99.90
12811;DHT22;6470;47.654;7.896;2023-12-29T05:13:39;7.00;99.90
12811;DHT22;6470;47.654;7.896;2023-12-29T05:16:06;7.00;99.90
12811;DHT22;6470;47.654;7.896;2023-12-29T05:18:31;7.10;99.90
12811;DHT22;6470;47.654;7.896;2023-12-29T05:20:57;7.10;99.90
12811;DHT22;6470;47.654;7.896;2023-12-29T05:23:23;7.40;99.90
12811;DHT22;6470;47.654;7.896;2023-12-29T05:25:48;7.40;99.90
12811;DHT22;6470;47.654;7.896;2023-12-29T05:28:14;7.20;99.90
12811;DHT22;6470;47.654;7.896;2023-12-29T05:30:40;7.20;99.90
12811;DHT22;6470;47.654;7.896;2023-12-29T05:33:05;7.50;99.90
12811;DHT22;6470;47.654;7.896;2023-12-29T05:35:31;7.20;99.90
12811;DHT22;6470;47.654;7.896;2023-12-29T05:40:23;7.30;99.90
12811;DHT22;6470;47.654;7.896;2023-12-29T05:42:48;7.10;99.90
12811;DHT22;6470;47.654;7.896;2023-12-29T05:45:16;7.40;99.90
12811;DHT22;6470;47.654;7.896;2023-12-29T05:47:42;6.70;99.90
12811;DHT22;6470;47.654;7.896;2023-12-29T05:50:08;7.10;99.90
12811;DHT22;6470;47.654;7.896;2023-12-29T05:52:34;7.60;99.90
12811;DHT22;6470;47.654;7.896;2023-12-29T05:59:53;6.90;99.90
12811;DHT22;6470;47.654;7.896;2023-12-29T06:12:04;6.80;99.90
12811;DHT22;6470;47.654;7.896;2023-12-29T06:16:56;7.30;99.90
12811;DHT22;6470;47.654;7.896;2023-12-29T06:19:21;7.30;99.90
12811;DHT22;6470;47.654;7.896;2023-12-29T06:21:47;6.60;99.90
12811;DHT22;6470;47.654;7.896;2023-12-29T06:26:40;7.00;99.90
12811;DHT22;6470;47.654;7.896;2023-12-29T06:29:09;6.90;99.90
12811;DHT22;6470;47.654;7.896;2023-12-29T06:31:35;6.90;99.90
12811;DHT22;6470;47.654;7.896;2023-12-29T06:34:00;6.50;99.90
12811;DHT22;6470;47.654;7.896;2023-12-29T06:36:26;7.50;99.90
12811;DHT22;6470;47.654;7.896;2023-12-29T06:38:52;7.50;99.90
12811;DHT22;6470;47.654;7.896;2023-12-29T06:41:19;6.50;99.90
12811;DHT22;6470;47.654;7.896;2023-12-29T06:43:44;7.30;99.90
12811;DHT22;6470;47.654;7.896;2023-12-29T06:46:11;7.40;99.90
12811;DHT22;6470;47.654;7.896;2023-12-29T06:48:39;6.90;99.90
12811;DHT22;6470;47.654;7.896;2023-12-29T06:51:05;6.70;99.90
12811;DHT22;6470;47.654;7.896;2023-12-29T06:55:57;7.40;99.90
12811;DHT22;6470;47.654;7.896;2023-12-29T06:58:23;7.10;99.90
12811;DHT22;6470;47.654;7.896;2023-12-29T07:00:49;7.60;99.90
12811;DHT22;6470;47.654;7.896;2023-12-29T07:03:14;6.60;99.90
12811;DHT22;6470;47.654;7.896;2023-12-29T07:05:40;4.00;99.90
12811;DHT22;6470;47.654;7.896;2023-12-29T07:10:32;7.70;99.90
12811;DHT22;6470;47.654;7.896;2023-12-29T07:15:24;3.80;99.90
12811;DHT22;6470;47.654;7.896;2023-12-29T07:17:50;6.80;99.90
12811;DHT22;6470;47.654;7.896;2023-12-29T07:20:15;7.70;99.90
12811;DHT22;6470;47.654;7.896;2023-12-29T07:22:41;6.90;99.90
12811;DHT22;6470;47.654;7.896;2023-12-29T07:25:08;7.90;99.90
12811;DHT22;6470;47.654;7.896;2023-12-29T07:27:33;4.20;99.90
12811;DHT22;6470;47.654;7.896;2023-12-29T07:29:59;7.50;99.90
12811;DHT22;6470;47.654;7.896;2023-12-29T07:32:25;4.50;99.90
12811;DHT22;6470;47.654;7.896;2023-12-29T07:34:50;7.90;99.90
12811;DHT22;6470;47.654;7.896;2023-12-29T07:39:42;8.20;99.90
12811;DHT22;6470;47.654;7.896;2023-12-29T07:42:08;8.30;99.90
12811;DHT22;6470;47.654;7.896;2023-12-29T07:47:00;8.40;99.90
12811;DHT22;6470;47.654;7.896;2023-12-29T07:49:26;7.60;99.90
12811;DHT22;6470;47.654;7.896;2023-12-29T07:51:52;4.50;99.90
12811;DHT22;6470;47.654;7.896;2023-12-29T07:54:17;8.00;99.90
12811;DHT22;6470;47.654;7.896;2023-12-29T07:59:09;7.10;99.90
12811;DHT22;6470;47.654;7.896;2023-12-29T08:01:35;4.20;99.90
12811;DHT22;6470;47.654;7.896;2023-12-29T08:04:02;4.20;99.90
12811;DHT22;6470;47.654;7.896;2023-12-29T08:06:29;4.50;99.90
12811;DHT22;6470;47.654;7.896;2023-12-29T08:08:55;7.70;99.90
12811;DHT22;6470;47.654;7.896;2023-12-29T08:11:21;7.60;99.90
12811;DHT22;6470;47.654;7.896;2023-12-29T08:13:48;7.40;99.90
12811;DHT22;6470;47.654;7.896;2023-12-29T08:16:15;7.40;99.90
12811;DHT22;6470;47.654;7.896;2023-12-29T08:18:43;7.00;99.90
12811;DHT22;6470;47.654;7.896;2023-12-29T08:21:08;6.80;99.90
12811;DHT22;6470;47.654;7.896;2023-12-29T08:23:37;7.40;99.90
12811;DHT22;6470;47.654;7.896;2023-12-29T08:28:30;6.70;99.90
12811;DHT22;6470;47.654;7.896;2023-12-29T08:33:21;6.80;99.90
12811;DHT22;6470;47.654;7.896;2023-12-29T08:35:47;7.40;99.90
12811;DHT22;6470;47.654;7.896;2023-12-29T08:40:40;7.70;99.90
12811;DHT22;6470;47.654;7.896;2023-12-29T08:43:07;7.60;99.90
12811;DHT22;6470;47.654;7.896;2023-12-29T08:45:32;7.80;99.90
12811;DHT22;6470;47.654;7.896;2023-12-29T08:47:58;7.70;99.90
12811;DHT22;6470;47.654;7.896;2023-12-29T08:55:16;7.90;99.90
12811;DHT22;6470;47.654;7.896;2023-12-29T08:57:42;6.90;99.90
12811;DHT22;6470;47.654;7.896;2023-12-29T09:00:08;7.80;99.90
12811;DHT22;6470;47.654;7.896;2023-12-29T09:02:35;7.90;99.90
12811;DHT22;6470;47.654;7.896;2023-12-29T09:09:53;7.70;99.90
12811;DHT22;6470;47.654;7.896;2023-12-29T09:12:19;7.60;99.90
12811;DHT22;6470;47.654;7.896;2023-12-29T09:14:45;8.00;99.90
12811;DHT22;6470;47.654;7.896;2023-12-29T09:17:11;8.20;99.90
12811;DHT22;6470;47.654;7.896;2023-12-29T09:19:36;7.90;99.90
12811;DHT22;6470;47.654;7.896;2023-12-29T09:22:02;7.80;99.90
12811;DHT22;6470;47.654;7.896;2023-12-29T09:24:28;8.10;99.90
12811;DHT22;6470;47.654;7.896;2023-12-29T09:31:46;8.20;99.90
12811;DHT22;6470;47.654;7.896;2023-12-29T09:34:12;8.50;99.90
12811;DHT22;6470;47.654;7.896;2023-12-29T09:36:38;8.40;99.90
12811;DHT22;6470;47.654;7.896;2023-12-29T09:39:03;7.70;99.90
12811;DHT22;6470;47.654;7.896;2023-12-29T09:41:31;8.50;99.90
12811;DHT22;6470;47.654;7.896;2023-12-29T09:44:01;8.70;99.90
12811;DHT22;6470;47.654;7.896;2023-12-29T09:46:28;7.10;99.90
12811;DHT22;6470;47.654;7.896;2023-12-29T09:48:57;9.30;99.90
12811;DHT22;6470;47.654;7.896;2023-12-29T09:51:24;9.80;99.90
12811;DHT22;6470;47.654;7.896;2023-12-29T09:53:51;9.20;99.90
12811;DHT22;6470;47.654;7.896;2023-12-29T09:56:17;9.40;99.90
12811;DHT22;6470;47.654;7.896;2023-12-29T09:58:47;9.70;99.90
12811;DHT22;6470;47.654;7.896;2023-12-29T10:01:14;9.90;99.90
12811;DHT22;6470;47.654;7.896;2023-12-29T10:06:07;10.20;99.90
12811;DHT22;6470;47.654;7.896;2023-12-29T10:08:37;10.00;99.90
12811;DHT22;6470;47.654;7.896;2023-12-29T10:11:05;9.50;99.90
12811;DHT22;6470;47.654;7.896;2023-12-29T10:13:32;10.10;99.90
12811;DHT22;6470;47.654;7.896;2023-12-29T10:22:26;10.10;99.90
12811;DHT22;6470;47.654;7.896;2023-12-29T10:24:56;12.30;99.90
12811;DHT22;6470;47.654;7.896;2023-12-29T10:27:22;12.20;99.90
12811;DHT22;6470;47.654;7.896;2023-12-29T10:29:48;11.80;99.90
12811;DHT22;6470;47.654;7.896;2023-12-29T10:32:14;12.60;99.90
12811;DHT22;6470;47.654;7.896;2023-12-29T10:37:07;12.40;99.90
12811;DHT22;6470;47.654;7.896;2023-12-29T10:39:39;11.90;99.90
12811;DHT22;6470;47.654;7.896;2023-12-29T10:42:07;12.00;99.90
12811;DHT22;6470;47.654;7.896;2023-12-29T10:44:37;12.20;99.90
12811;DHT22;6470;47.654;7.896;2023-12-29T10:47:09;11.90;99.90
12811;DHT22;6470;47.654;7.896;2023-12-29T10:49:36;12.10;99.90
12811;DHT22;6470;47.654;7.896;2023-12-29T10:52:15;12.50;99.90
12811;DHT22;6470;47.654;7.896;2023-12-29T10:54:41;11.10;99.90
12811;DHT22;6470;47.654;7.896;2023-12-29T10:57:10;9.80;99.90
12811;DHT22;6470;47.654;7.896;2023-12-29T11:02:03;12.60;99.90
12811;DHT22;6470;47.654;7.896;2023-12-29T11:06:55;12.40;99.90
12811;DHT22;6470;47.654;7.896;2023-12-29T11:09:32;12.10;99.90
12811;DHT22;6470;47.654;7.896;2023-12-29T11:12:03;11.10;99.90
12811;DHT22;6470;47.654;7.896;2023-12-29T11:14:30;12.20;99.90
12811;DHT22;6470;47.654;7.896;2023-12-29T11:16:57;12.30;99.90
12811;DHT22;6470;47.654;7.896;2023-12-29T11:19:24;12.50;99.90
12811;DHT22;6470;47.654;7.896;2023-12-29T11:21:52;11.20;99.90
12811;DHT22;6470;47.654;7.896;2023-12-29T11:24:21;12.70;99.90
12811;DHT22;6470;47.654;7.896;2023-12-29T11:26:51;11.90;99.90
12811;DHT22;6470;47.654;7.896;2023-12-29T11:31:47;11.90;99.90
12811;DHT22;6470;47.654;7.896;2023-12-29T11:34:26;12.30;99.90
12811;DHT22;6470;47.654;7.896;2023-12-29T11:37:05;12.00;99.90
12811;DHT22;6470;47.654;7.896;2023-12-29T11:42:23;11.90;99.90
12811;DHT22;6470;47.654;7.896;2023-12-29T11:44:52;11.70;99.90
12811;DHT22;6470;47.654;7.896;2023-12-29T11:47:38;14.90;99.90
12811;DHT22;6470;47.654;7.896;2023-12-29T11:50:04;12.10;99.90
12811;DHT22;6470;47.654;7.896;2023-12-29T11:52:38;15.10;99.90
12811;DHT22;6470;47.654;7.896;2023-12-29T11:55:10;15.40;99.90
12811;DHT22;6470;47.654;7.896;2023-12-29T11:57:37;15.50;99.90
12811;DHT22;6470;47.654;7.896;2023-12-29T12:00:05;10.10;99.90
12811;DHT22;6470;47.654;7.896;2023-12-29T12:02:32;15.10;99.90
12811;DHT22;6470;47.654;7.896;2023-12-29T12:04:58;15.00;99.90
12811;DHT22;6470;47.654;7.896;2023-12-29T12:12:41;15.60;99.90
12811;DHT22;6470;47.654;7.896;2023-12-29T12:18:11;14.90;99.90
12811;DHT22;6470;47.654;7.896;2023-12-29T12:20:37;15.40;99.90
12811;DHT22;6470;47.654;7.896;2023-12-29T12:23:12;15.40;99.90
12811;DHT22;6470;47.654;7.896;2023-12-29T12:25:41;12.60;99.90
12811;DHT22;6470;47.654;7.896;2023-12-29T12:28:09;15.40;99.90
12811;DHT22;6470;47.654;7.896;2023-12-29T12:30:35;15.60;99.90
12811;DHT22;6470;47.654;7.896;2023-12-29T12:33:02;15.10;99.90
12811;DHT22;6470;47.654;7.896;2023-12-29T12:35:29;15.20;99.90
12811;DHT22;6470;47.654;7.896;2023-12-29T12:40:34;15.70;99.90
12811;DHT22;6470;47.654;7.896;2023-12-29T12:43:01;12.90;99.90
12811;DHT22;6470;47.654;7.896;2023-12-29T12:45:28;12.90;99.90
12811;DHT22;6470;47.654;7.896;2023-12-29T12:48:00;15.50;99.90
12811;DHT22;6470;47.654;7.896;2023-12-29T12:50:27;15.10;99.90
12811;DHT22;6470;47.654;7.896;2023-12-29T12:52:53;14.80;99.90
12811;DHT22;6470;47.654;7.896;2023-12-29T12:57:47;15.40;99.90
12811;DHT22;6470;47.654;7.896;2023-12-29T13:00:14;14.60;99.90
12811;DHT22;6470;47.654;7.896;2023-12-29T13:02:42;14.80;99.90
12811;DHT22;6470;47.654;7.896;2023-12-29T13:07:40;15.70;99.90
12811;DHT22;6470;47.654;7.896;2023-12-29T13:10:07;14.80;99.90
12811;DHT22;6470;47.654;7.896;2023-12-29T13:12:33;15.10;99.90
12811;DHT22;6470;47.654;7.896;2023-12-29T13:15:06;10.10;99.90
12811;DHT22;6470;47.654;7.896;2023-12-29T13:17:33;15.50;99.90
12811;DHT22;6470;47.654;7.896;2023-12-29T13:19:59;15.10;99.90
12811;DHT22;6470;47.654;7.896;2023-12-29T13:24:52;15.40;99.90
12811;DHT22;6470;47.654;7.896;2023-12-29T13:27:19;9.70;99.90
12811;DHT22;6470;47.654;7.896;2023-12-29T13:29:47;12.50;99.90
12811;DHT22;6470;47.654;7.896;2023-12-29T13:32:22;15.10;99.90
12811;DHT22;6470;47.654;7.896;2023-12-29T13:37:34;15.50;99.90
12811;DHT22;6470;47.654;7.896;2023-12-29T13:42:45;15.60;99.90
12811;DHT22;6470;47.654;7.896;2023-12-29T13:47:39;14.80;99.90
12811;DHT22;6470;47.654;7.896;2023-12-29T13:50:05;15.40;99.90
12811;DHT22;6470;47.654;7.896;2023-12-29T13:52:36;15.50;99.90
12811;DHT22;6470;47.654;7.896;2023-12-29T13:55:04;15.20;99.90
12811;DHT22;6470;47.654;7.896;2023-12-29T13:57:34;12.50;99.90
12811;DHT22;6470;47.654;7.896;2023-12-29T14:00:32;15.50;99.90
12811;DHT22;6470;47.654;7.896;2023-12-29T14:03:06;12.60;99.90
12811;DHT22;6470;47.654;7.896;2023-12-29T14:05:51;15.60;99.90
12811;DHT22;6470;47.654;7.896;2023-12-29T14:08:25;15.30;99.90
12811;DHT22;6470;47.654;7.896;2023-12-29T14:10:52;15.10;99.90
12811;DHT22;6470;47.654;7.896;2023-12-29T14:15:45;15.40;99.90
12811;DHT22;6470;47.654;7.896;2023-12-29T14:21:32;15.30;99.90
12811;DHT22;6470;47.654;7.896;2023-12-29T14:24:08;15.60;99.90
12811;DHT22;6470;47.654;7.896;2023-12-29T14:26:35;15.50;99.90
12811;DHT22;6470;47.654;7.896;2023-12-29T14:29:11;12.30;99.90
12811;DHT22;6470;47.654;7.896;2023-12-29T14:31:42;15.10;99.90
12811;DHT22;6470;47.654;7.896;2023-12-29T14:34:09;15.30;99.90
12811;DHT22;6470;47.654;7.896;2023-12-29T14:36:37;10.00;99.90
12811;DHT22;6470;47.654;7.896;2023-12-29T14:39:03;15.40;99.90
12811;DHT22;6470;47.654;7.896;2023-12-29T14:46:23;15.30;99.90
12811;DHT22;6470;47.654;7.896;2023-12-29T14:51:15;15.40;99.90
12811;DHT22;6470;47.654;7.896;2023-12-29T14:53:49;15.50;99.90
12811;DHT22;6470;47.654;7.896;2023-12-29T14:56:15;12.00;99.90
12811;DHT22;6470;47.654;7.896;2023-12-29T15:01:08;12.60;99.90
12811;DHT22;6470;47.654;7.896;2023-12-29T15:03:35;11.60;99.90
12811;DHT22;6470;47.654;7.896;2023-12-29T15:06:02;11.50;99.90
12811;DHT22;6470;47.654;7.896;2023-12-29T15:08:28;12.00;99.90
12811;DHT22;6470;47.654;7.896;2023-12-29T15:13:26;12.40;99.90
12811;DHT22;6470;47.654;7.896;2023-12-29T15:15:52;12.00;99.90
12811;DHT22;6470;47.654;7.896;2023-12-29T15:18:18;12.00;99.90
12811;DHT22;6470;47.654;7.896;2023-12-29T15:20:44;15.50;99.90
12811;DHT22;6470;47.654;7.896;2023-12-29T15:28:03;11.90;99.90
12811;DHT22;6470;47.654;7.896;2023-12-29T15:37:47;12.40;99.90
12811;DHT22;6470;47.654;7.896;2023-12-29T15:40:12;12.40;99.90
12811;DHT22;6470;47.654;7.896;2023-12-29T15:42:38;12.70;99.90
12811;DHT22;6470;47.654;7.896;2023-12-29T15:45:04;12.20;99.90
12811;DHT22;6470;47.654;7.896;2023-12-29T15:49:56;12.30;99.90
12811;DHT22;6470;47.654;7.896;2023-12-29T15:52:21;12.30;99.90
12811;DHT22;6470;47.654;7.896;2023-12-29T15:54:47;11.80;99.90
12811;DHT22;6470;47.654;7.896;2023-12-29T15:57:13;11.80;99.90
12811;DHT22;6470;47.654;7.896;2023-12-29T15:59:39;11.40;99.90
12811;DHT22;6470;47.654;7.896;2023-12-29T16:02:04;11.70;99.90
12811;DHT22;6470;47.654;7.896;2023-12-29T16:06:56;11.60;99.90
12811;DHT22;6470;47.654;7.896;2023-12-29T16:09:22;11.70;99.90
12811;DHT22;6470;47.654;7.896;2023-12-29T16:11:48;12.20;99.90
12811;DHT22;6470;47.654;7.896;2023-12-29T16:14:15;12.10;99.90
12811;DHT22;6470;47.654;7.896;2023-12-29T16:16:42;11.70;99.90
12811;DHT22;6470;47.654;7.896;2023-12-29T16:19:08;9.50;99.90
12811;DHT22;6470;47.654;7.896;2023-12-29T16:21:38;12.20;99.90
12811;DHT22;6470;47.654;7.896;2023-12-29T16:24:07;12.10;99.90
12811;DHT22;6470;47.654;7.896;2023-12-29T16:26:33;12.50;99.90
12811;DHT22;6470;47.654;7.896;2023-12-29T16:28:59;9.90;99.90
12811;DHT22;6470;47.654;7.896;2023-12-29T16:38:49;12.20;99.90
12811;DHT22;6470;47.654;7.896;2023-12-29T16:41:16;10.90;99.90
12811;DHT22;6470;47.654;7.896;2023-12-29T16:43:42;12.00;99.90
12811;DHT22;6470;47.654;7.896;2023-12-29T16:46:08;9.40;99.90
12811;DHT22;6470;47.654;7.896;2023-12-29T16:48:34;12.00;99.90
12811;DHT22;6470;47.654;7.896;2023-12-29T16:53:26;12.10;99.90
12811;DHT22;6470;47.654;7.896;2023-12-29T16:58:20;10.30;99.90
12811;DHT22;6470;47.654;7.896;2023-12-29T17:00:49;12.30;99.90
12811;DHT22;6470;47.654;7.896;2023-12-29T17:10:36;11.90;99.90
12811;DHT22;6470;47.654;7.896;2023-12-29T17:13:02;12.00;99.90
12811;DHT22;6470;47.654;7.896;2023-12-29T17:15:28;12.00;99.90
12811;DHT22;6470;47.654;7.896;2023-12-29T17:17:53;11.60;99.90
12811;DHT22;6470;47.654;7.896;2023-12-29T17:22:45;11.80;99.90
12811;DHT22;6470;47.654;7.896;2023-12-29T17:25:11;11.90;99.90
12811;DHT22;6470;47.654;7.896;2023-12-29T17:27:37;12.40;99.90
12811;DHT22;6470;47.654;7.896;2023-12-29T17:30:04;11.90;99.90
12811;DHT22;6470;47.654;7.896;2023-12-29T17:34:56;11.70;99.90
12811;DHT22;6470;47.654;7.896;2023-12-29T17:37:22;11.90;99.90
12811;DHT22;6470;47.654;7.896;2023-12-29T17:39:47;9.60;99.90
12811;DHT22;6470;47.654;7.896;2023-12-29T17:42:13;9.90;99.90
12811;DHT22;6470;47.654;7.896;2023-12-29T17:44:40;10.50;99.90
12811;DHT22;6470;47.654;7.896;2023-12-29T17:47:06;10.50;99.90
12811;DHT22;6470;47.654;7.896;2023-12-29T17:49:34;10.90;99.90
12811;DHT22;6470;47.654;7.896;2023-12-29T17:54:26;10.70;99.90
12811;DHT22;6470;47.654;7.896;2023-12-29T17:56:52;12.30;99.90
12811;DHT22;6470;47.654;7.896;2023-12-29T17:59:19;10.20;99.90
12811;DHT22;6470;47.654;7.896;2023-12-29T18:01:51;9.40;99.90
12811;DHT22;6470;47.654;7.896;2023-12-29T18:04:17;9.90;99.90
12811;DHT22;6470;47.654;7.896;2023-12-29T18:10:05;9.70;99.90
12811;DHT22;6470;47.654;7.896;2023-12-29T18:14:59;9.90;99.90
12811;DHT22;6470;47.654;7.896;2023-12-29T18:17:25;9.80;99.90
12811;DHT22;6470;47.654;7.896;2023-12-29T18:19:52;10.00;99.90
12811;DHT22;6470;47.654;7.896;2023-12-29T18:22:18;10.30;99.90
12811;DHT22;6470;47.654;7.896;2023-12-29T18:24:44;10.60;99.90
12811;DHT22;6470;47.654;7.896;2023-12-29T18:27:09;9.60;99.90
12811;DHT22;6470;47.654;7.896;2023-12-29T18:32:01;10.20;99.90
12811;DHT22;6470;47.654;7.896;2023-12-29T18:34:27;10.40;99.90
12811;DHT22;6470;47.654;7.896;2023-12-29T18:39:21;9.60;99.90
12811;DHT22;6470;47.654;7.896;2023-12-29T18:41:47;9.70;99.90
12811;DHT22;6470;47.654;7.896;2023-12-29T18:44:12;9.60;99.90
12811;DHT22;6470;47.654;7.896;2023-12-29T18:46:38;9.40;99.90
12811;DHT22;6470;47.654;7.896;2023-12-29T18:49:04;10.20;99.90
12811;DHT22;6470;47.654;7.896;2023-12-29T18:51:31;10.10;99.90
12811;DHT22;6470;47.654;7.896;2023-12-29T18:53:57;10.10;99.90
12811;DHT22;6470;47.654;7.896;2023-12-29T18:56:23;10.10;99.90
12811;DHT22;6470;47.654;7.896;2023-12-29T19:01:16;9.40;99.90
12811;DHT22;6470;47.654;7.896;2023-12-29T19:03:43;10.40;99.90
12811;DHT22;6470;47.654;7.896;2023-12-29T19:06:09;9.20;99.90
12811;DHT22;6470;47.654;7.896;2023-12-29T19:08:35;10.50;99.90
12811;DHT22;6470;47.654;7.896;2023-12-29T19:11:01;9.50;99.90
12811;DHT22;6470;47.654;7.896;2023-12-29T19:13:26;9.30;99.90
12811;DHT22;6470;47.654;7.896;2023-12-29T19:15:52;10.00;99.90
12811;DHT22;6470;47.654;7.896;2023-12-29T19:18:18;9.70;99.90
12811;DHT22;6470;47.654;7.896;2023-12-29T19:20:45;10.50;99.90
12811;DHT22;6470;47.654;7.896;2023-12-29T19:23:10;10.20;99.90
12811;DHT22;6470;47.654;7.896;2023-12-29T19:25:36;10.30;99.90
12811;DHT22;6470;47.654;7.896;2023-12-29T19:28:02;9.60;99.90
12811;DHT22;6470;47.654;7.896;2023-12-29T19:32:55;10.00;99.90
12811;DHT22;6470;47.654;7.896;2023-12-29T19:35:21;9.50;99.90
12811;DHT22;6470;47.654;7.896;2023-12-29T19:37:47;10.00;99.90